Terminal Aerodrome Forecast
Issued by NWS Wilmington, NC

Current Version | Previous Version | Graphics & Text | Print | Product List | Glossary Off
Versions: 1 2 3 4 5 6 7 8 9 10 11 12 13 14 15

000
FTUS42 KILM 240500
TAFFLO
TAF
KFLO 240527Z 2406/2506 21010KT 6SM BR VCSH BKN006
     FM241100 22009KT 3SM BR BKN006
     FM241700 22012G20KT P6SM VCSH OVC020
     FM242100 22006KT 6SM BR SCT007 OVC015
     FM250000 20010KT 4SM BR SCT008 OVC025=

USA.gov is the U.S. government's official web portal to all federal, state and local government web resources and services.